createdAt,value
2022-10-06T00:00:51.327Z,9.40
2022-10-06T00:03:18.636Z,7.75
2022-10-06T00:05:45.491Z,8.02
2022-10-06T00:08:12.545Z,7.55
2022-10-06T00:10:40.181Z,8.85
2022-10-06T00:13:07.941Z,8.18
2022-10-06T00:15:35.394Z,8.40
2022-10-06T00:18:02.922Z,6.97
2022-10-06T00:20:30.296Z,7.50
2022-10-06T00:22:57.312Z,6.90
2022-10-06T00:25:25.820Z,7.13
2022-10-06T00:27:54.050Z,8.88
2022-10-06T00:30:23.965Z,7.53
2022-10-06T00:35:33.753Z,6.32
2022-10-06T00:38:01.781Z,7.20
2022-10-06T00:40:29.650Z,8.02
2022-10-06T00:43:02.612Z,7.35
2022-10-06T00:45:43.983Z,8.90
2022-10-06T00:48:18.788Z,11.07
2022-10-06T00:50:46.679Z,8.95
2022-10-06T00:53:14.749Z,8.98
2022-10-06T00:55:41.648Z,9.15
2022-10-06T00:58:09.636Z,9.32
2022-10-06T01:00:36.700Z,9.10
2022-10-06T01:03:15.393Z,9.20
2022-10-06T01:05:49.871Z,10.02
2022-10-06T01:08:17.167Z,10.27
2022-10-06T01:10:44.586Z,11.38
2022-10-06T01:13:13.431Z,11.38
2022-10-06T01:16:00.295Z,12.23
2022-10-06T01:18:29.672Z,12.63
2022-10-06T01:21:14.899Z,12.30
2022-10-06T01:23:42.021Z,12.77
2022-10-06T01:26:11.592Z,12.05
2022-10-06T01:28:39.411Z,11.85
2022-10-06T01:31:08.263Z,11.65
2022-10-06T01:33:35.396Z,11.68
2022-10-06T01:36:02.308Z,11.55
2022-10-06T01:38:29.469Z,11.57
2022-10-06T01:40:56.770Z,11.05
2022-10-06T01:43:23.690Z,11.68
2022-10-06T01:45:55.347Z,11.00
2022-10-06T01:48:23.371Z,11.32
2022-10-06T01:50:50.844Z,11.65
2022-10-06T01:53:18.376Z,12.43
2022-10-06T01:55:45.364Z,12.90
2022-10-06T01:58:15.053Z,11.18
2022-10-06T02:00:42.745Z,12.10
2022-10-06T02:03:09.916Z,12.60
2022-10-06T02:05:36.893Z,12.18
2022-10-06T02:08:03.963Z,11.27
2022-10-06T02:10:30.960Z,10.68
2022-10-06T02:12:57.989Z,10.68
2022-10-06T02:15:26.936Z,11.73
2022-10-06T02:17:54.735Z,10.82
2022-10-06T02:20:22.103Z,11.20
2022-10-06T02:22:49.238Z,11.75
2022-10-06T02:25:17.321Z,11.77
2022-10-06T02:27:44.725Z,10.68
2022-10-06T02:30:14.548Z,11.20
2022-10-06T02:32:42.925Z,11.70
2022-10-06T02:35:12.848Z,12.48
2022-10-06T02:40:09.545Z,11.70
2022-10-06T02:42:37.856Z,12.13
2022-10-06T02:45:07.063Z,11.50
2022-10-06T02:47:35.445Z,11.63
2022-10-06T02:50:05.450Z,10.80
2022-10-06T02:55:05.589Z,11.10
2022-10-06T02:57:32.472Z,11.65
2022-10-06T02:59:59.324Z,12.02
2022-10-06T03:02:26.428Z,12.07
2022-10-06T03:04:53.439Z,13.45
2022-10-06T03:07:20.327Z,12.10
2022-10-06T03:09:47.221Z,13.13
2022-10-06T03:12:14.090Z,13.43
2022-10-06T03:14:41.026Z,12.82
2022-10-06T03:17:10.207Z,13.70
2022-10-06T03:19:37.634Z,12.50
2022-10-06T03:22:05.801Z,11.80
2022-10-06T03:24:32.910Z,12.82
2022-10-06T03:26:59.902Z,14.43
2022-10-06T03:29:28.055Z,13.95
2022-10-06T03:31:54.917Z,12.95
2022-10-06T03:34:21.926Z,14.43
2022-10-06T03:36:48.790Z,14.32
2022-10-06T03:39:15.735Z,13.35
2022-10-06T03:41:42.661Z,13.55
2022-10-06T03:44:09.631Z,13.07
2022-10-06T03:46:37.355Z,13.32
2022-10-06T03:49:05.274Z,12.23
2022-10-06T03:51:35.719Z,13.77
2022-10-06T03:54:03.109Z,12.32
2022-10-06T03:56:35.180Z,14.50
2022-10-06T03:59:05.056Z,13.75
2022-10-06T04:04:02.076Z,14.60
2022-10-06T04:06:31.303Z,13.88
2022-10-06T04:08:58.285Z,15.35
2022-10-06T04:11:29.836Z,13.13
2022-10-06T04:14:03.501Z,14.98
2022-10-06T04:16:31.735Z,13.60
2022-10-06T04:19:00.654Z,15.70
2022-10-06T04:21:28.789Z,15.15
2022-10-06T04:24:00.121Z,17.88
2022-10-06T04:26:30.751Z,15.52
2022-10-06T04:28:58.302Z,14.75
2022-10-06T04:31:30.602Z,18.63
2022-10-06T04:34:02.127Z,16.17
2022-10-06T04:36:32.332Z,18.30
2022-10-06T04:39:03.091Z,18.05
2022-10-06T04:41:32.293Z,15.20
2022-10-06T04:44:00.236Z,16.95
2022-10-06T04:46:42.750Z,16.67
2022-10-06T04:49:18.621Z,17.23
2022-10-06T04:51:49.386Z,19.15
2022-10-06T04:54:18.737Z,17.90
2022-10-06T04:56:45.609Z,19.77
2022-10-06T04:59:12.549Z,18.52
2022-10-06T05:01:39.478Z,21.52
2022-10-06T05:04:06.849Z,23.17
2022-10-06T05:06:35.447Z,20.65
2022-10-06T05:09:05.499Z,20.83
2022-10-06T05:11:33.373Z,21.70
2022-10-06T05:14:00.776Z,22.55
2022-10-06T05:16:29.692Z,25.05
2022-10-06T05:18:57.184Z,26.58
2022-10-06T05:21:29.680Z,25.70
2022-10-06T05:23:57.007Z,25.15
2022-10-06T05:26:26.626Z,24.63
2022-10-06T05:28:53.874Z,24.23
2022-10-06T05:31:23.646Z,23.45
2022-10-06T05:33:50.881Z,23.45
2022-10-06T05:36:20.046Z,25.50
2022-10-06T05:38:47.219Z,24.93
2022-10-06T05:41:16.410Z,22.60
2022-10-06T05:43:43.944Z,23.00
2022-10-06T05:46:17.471Z,23.23
2022-10-06T05:48:49.290Z,25.42
2022-10-06T05:51:17.582Z,23.10
2022-10-06T05:53:45.231Z,23.02
2022-10-06T05:56:29.720Z,22.25
2022-10-06T05:58:57.845Z,23.75
2022-10-06T06:01:25.123Z,22.77
2022-10-06T06:03:53.245Z,23.65
2022-10-06T06:06:24.525Z,22.20
2022-10-06T06:08:56.001Z,22.63
2022-10-06T06:11:26.526Z,21.77
2022-10-06T06:13:54.411Z,22.25
2022-10-06T06:16:21.803Z,19.77
2022-10-06T06:18:49.155Z,20.60
2022-10-06T06:21:16.615Z,21.02
2022-10-06T06:23:46.497Z,20.85
2022-10-06T06:28:41.549Z,19.00
2022-10-06T06:31:17.586Z,19.98
2022-10-06T06:33:47.632Z,20.35
2022-10-06T06:36:22.602Z,20.33
2022-10-06T06:38:52.036Z,20.00
2022-10-06T06:41:22.415Z,20.67
2022-10-06T06:43:50.072Z,20.20
2022-10-06T06:46:18.903Z,21.40
2022-10-06T06:48:47.306Z,19.88
2022-10-06T06:51:15.197Z,21.17
2022-10-06T06:53:42.592Z,21.02
2022-10-06T06:56:09.819Z,20.77
2022-10-06T06:58:36.920Z,21.33
2022-10-06T07:01:13.816Z,18.98
2022-10-06T07:03:57.133Z,20.73
2022-10-06T07:06:29.493Z,20.75
2022-10-06T07:09:00.449Z,19.60
2022-10-06T07:11:32.884Z,20.50
2022-10-06T07:14:04.601Z,19.33
2022-10-06T07:16:51.318Z,19.63
2022-10-06T07:19:38.361Z,21.52
2022-10-06T07:22:27.130Z,20.20
2022-10-06T07:25:07.711Z,19.80
2022-10-06T07:27:35.216Z,23.42
2022-10-06T07:30:02.615Z,20.90
2022-10-06T07:32:30.992Z,20.13
2022-10-06T07:35:03.230Z,20.50
2022-10-06T07:37:30.505Z,19.55
2022-10-06T07:39:57.797Z,19.30
2022-10-06T07:42:25.087Z,19.95
2022-10-06T07:45:10.828Z,20.50
2022-10-06T07:47:38.328Z,19.05
2022-10-06T07:50:09.092Z,19.67
2022-10-06T07:52:39.576Z,21.17
2022-10-06T07:55:07.388Z,21.17
2022-10-06T07:57:35.309Z,21.23
2022-10-06T08:00:05.522Z,22.27
2022-10-06T08:02:35.548Z,21.15
2022-10-06T08:05:04.286Z,21.10
2022-10-06T08:07:31.578Z,19.77
2022-10-06T08:09:58.914Z,21.60
2022-10-06T08:12:37.506Z,21.52
2022-10-06T08:15:07.590Z,21.58
2022-10-06T08:17:38.718Z,21.67
2022-10-06T08:20:07.249Z,21.40
2022-10-06T08:22:36.245Z,22.65
2022-10-06T08:25:06.547Z,21.60
2022-10-06T08:27:35.519Z,24.33
2022-10-06T08:30:03.637Z,24.92
2022-10-06T08:32:32.244Z,22.65
2022-10-06T08:34:59.531Z,22.55
2022-10-06T08:37:27.492Z,22.33
2022-10-06T08:39:55.574Z,23.40
2022-10-06T08:42:29.726Z,22.70
2022-10-06T08:45:00.191Z,21.88
2022-10-06T08:47:30.346Z,22.15
2022-10-06T08:49:58.289Z,21.05
2022-10-06T08:52:46.331Z,21.17
2022-10-06T08:55:32.379Z,21.67
2022-10-06T08:58:23.079Z,24.25
2022-10-06T09:00:50.877Z,23.67
2022-10-06T09:03:25.147Z,22.23
2022-10-06T09:05:53.698Z,20.20
2022-10-06T09:08:39.746Z,20.35
2022-10-06T09:11:31.169Z,21.27
2022-10-06T09:14:03.151Z,20.75
2022-10-06T09:16:37.055Z,19.95
2022-10-06T09:19:33.535Z,20.55
2022-10-06T09:22:02.427Z,19.98
2022-10-06T09:24:47.544Z,20.85
2022-10-06T09:27:26.749Z,18.90
2022-10-06T09:29:54.770Z,20.67
2022-10-06T09:32:23.456Z,19.60
2022-10-06T09:34:59.905Z,19.30
2022-10-06T09:37:27.761Z,22.02
2022-10-06T09:39:55.734Z,18.88
2022-10-06T09:42:33.018Z,18.42
2022-10-06T09:45:26.640Z,17.63
2022-10-06T09:47:53.933Z,17.33
2022-10-06T09:50:22.953Z,17.27
2022-10-06T09:52:50.232Z,17.73
2022-10-06T09:55:19.032Z,16.90
2022-10-06T09:57:54.118Z,17.20
2022-10-06T10:00:31.765Z,16.40
2022-10-06T10:03:03.182Z,16.95
2022-10-06T10:05:32.301Z,17.45
2022-10-06T10:08:14.838Z,16.38
2022-10-06T10:10:42.162Z,16.17
2022-10-06T10:13:21.737Z,15.80
2022-10-06T10:15:59.913Z,15.25
2022-10-06T10:18:28.910Z,15.07
2022-10-06T10:20:58.972Z,14.27
2022-10-06T10:23:31.592Z,13.80
2022-10-06T10:26:08.028Z,15.40
2022-10-06T10:28:48.254Z,13.38
2022-10-06T10:31:21.572Z,13.55
2022-10-06T10:34:12.899Z,12.93
2022-10-06T10:37:18.164Z,13.80
2022-10-06T10:39:45.435Z,12.88
2022-10-06T10:42:15.443Z,12.35
2022-10-06T10:44:47.467Z,11.50
2022-10-06T10:47:35.558Z,11.50
2022-10-06T10:50:05.577Z,10.07
2022-10-06T10:52:38.062Z,10.98
2022-10-06T10:55:16.227Z,11.85
2022-10-06T10:57:44.147Z,11.95
2022-10-06T11:00:17.379Z,11.50
2022-10-06T11:02:44.788Z,10.73
2022-10-06T11:05:29.067Z,10.90
2022-10-06T11:08:09.113Z,9.45
2022-10-06T11:10:43.129Z,10.10
2022-10-06T11:13:10.669Z,10.23
2022-10-06T11:15:40.991Z,11.65
2022-10-06T11:18:21.395Z,21.17
2022-10-06T11:20:57.936Z,12.25
2022-10-06T11:23:36.561Z,13.05
2022-10-06T11:26:12.904Z,11.00
2022-10-06T11:28:46.371Z,9.63
2022-10-06T11:31:22.657Z,8.20
2022-10-06T11:33:50.603Z,8.75
2022-10-06T11:36:44.626Z,8.70
2022-10-06T11:39:20.640Z,10.32
2022-10-06T11:41:51.193Z,9.23
2022-10-06T11:44:54.134Z,9.02
2022-10-06T11:47:35.182Z,8.68
2022-10-06T11:50:03.590Z,8.15
2022-10-06T11:52:30.815Z,8.63
2022-10-06T11:55:09.704Z,9.43
2022-10-06T11:57:57.142Z,10.33
2022-10-06T12:00:27.424Z,9.55
2022-10-06T12:02:54.798Z,9.82
2022-10-06T12:05:56.352Z,8.25
2022-10-06T12:08:40.916Z,9.68
2022-10-06T12:11:27.236Z,10.65
2022-10-06T12:19:51.550Z,7.25
2022-10-06T12:22:38.150Z,5.45
2022-10-06T12:25:31.402Z,6.60
2022-10-06T12:28:05.269Z,5.50
2022-10-06T12:30:47.148Z,5.65
2022-10-06T12:33:18.413Z,5.63
2022-10-06T12:35:45.967Z,5.55
2022-10-06T12:38:43.237Z,5.25
2022-10-06T12:41:11.622Z,5.15
2022-10-06T12:43:50.666Z,4.95
2022-10-06T12:46:31.886Z,5.00
2022-10-06T12:49:08.098Z,4.50
2022-10-06T12:51:35.388Z,4.28
2022-10-06T12:54:19.668Z,4.40
2022-10-06T12:57:00.550Z,4.65
2022-10-06T12:59:27.814Z,4.57
2022-10-06T13:01:59.709Z,4.55
2022-10-06T13:04:34.680Z,3.88
2022-10-06T13:07:10.024Z,4.28
2022-10-06T13:09:37.500Z,4.10
2022-10-06T13:12:25.002Z,3.63
2022-10-06T13:15:10.798Z,4.05
2022-10-06T13:17:43.222Z,5.38
2022-10-06T13:20:19.408Z,4.03
2022-10-06T13:22:47.388Z,4.55
2022-10-06T13:25:16.472Z,4.70
2022-10-06T13:27:49.945Z,4.55
2022-10-06T13:30:23.576Z,4.45
2022-10-06T13:32:54.601Z,4.13
2022-10-06T13:35:24.271Z,3.75
2022-10-06T13:37:52.561Z,3.80
2022-10-06T13:40:47.296Z,3.97
2022-10-06T13:43:17.099Z,3.47
2022-10-06T13:48:15.315Z,3.15
2022-10-06T13:50:46.482Z,3.70
2022-10-06T13:53:31.136Z,4.15
2022-10-06T13:55:59.335Z,2.85
2022-10-06T13:58:27.980Z,2.70
2022-10-06T14:00:56.428Z,3.15
2022-10-06T14:03:26.112Z,3.13
2022-10-06T14:08:24.516Z,3.20
2022-10-06T14:10:56.473Z,3.38
2022-10-06T14:13:35.778Z,2.80
2022-10-06T14:16:05.103Z,3.08
2022-10-06T14:18:53.608Z,2.72
2022-10-06T14:21:36.849Z,2.42
2022-10-06T14:24:16.615Z,2.35
2022-10-06T14:26:44.679Z,2.10
2022-10-06T14:29:14.333Z,1.85
2022-10-06T14:31:41.668Z,2.03
2022-10-06T14:34:14.630Z,1.70
2022-10-06T14:36:43.057Z,1.20
2022-10-06T14:39:12.667Z,1.50
2022-10-06T14:41:40.076Z,1.58
2022-10-06T14:44:12.273Z,1.67
2022-10-06T14:46:41.406Z,1.10
2022-10-06T14:49:10.602Z,1.10
2022-10-06T14:51:38.797Z,1.33
2022-10-06T14:54:07.741Z,1.13
2022-10-06T14:56:37.412Z,1.83
2022-10-06T14:59:06.308Z,0.80
2022-10-06T15:01:34.751Z,1.13
2022-10-06T15:04:06.608Z,0.90
2022-10-06T15:06:52.309Z,1.10
2022-10-06T15:09:19.520Z,0.80
2022-10-06T15:11:46.887Z,0.80
2022-10-06T15:14:14.258Z,0.85
2022-10-06T15:16:43.860Z,0.73
2022-10-06T15:19:12.008Z,0.80
2022-10-06T15:21:40.221Z,1.00
2022-10-06T15:24:20.665Z,0.88
2022-10-06T15:27:09.141Z,0.70
2022-10-06T15:29:36.751Z,0.68
2022-10-06T15:32:06.770Z,0.70
2022-10-06T15:34:38.652Z,1.48
2022-10-06T15:37:06.622Z,1.27
2022-10-06T15:39:37.141Z,0.88
2022-10-06T15:42:07.202Z,1.48
2022-10-06T15:44:35.844Z,0.75
2022-10-06T15:47:04.679Z,1.50
2022-10-06T15:49:33.254Z,0.90
2022-10-06T15:52:03.231Z,1.10
2022-10-06T15:54:33.984Z,1.05
2022-10-06T15:57:05.739Z,1.20
2022-10-06T15:59:34.105Z,1.08
2022-10-06T16:02:04.480Z,1.10
2022-10-06T16:04:39.374Z,0.95
2022-10-06T16:07:12.885Z,1.00
2022-10-06T16:09:43.580Z,1.20
2022-10-06T16:12:11.962Z,0.80
2022-10-06T16:14:40.076Z,1.20
2022-10-06T16:17:10.768Z,0.90
2022-10-06T16:19:38.677Z,0.95
2022-10-06T16:22:08.742Z,1.02
2022-10-06T16:24:37.148Z,1.00
2022-10-06T16:27:06.476Z,1.17
2022-10-06T16:29:34.865Z,1.00
2022-10-06T16:32:03.747Z,1.10
2022-10-06T16:34:31.579Z,0.80
2022-10-06T16:37:01.930Z,1.13
2022-10-06T16:39:29.748Z,1.25
2022-10-06T16:41:58.431Z,0.95
2022-10-06T16:44:26.778Z,1.08
2022-10-06T16:46:56.832Z,1.02
2022-10-06T16:49:25.767Z,0.95
2022-10-06T16:51:54.103Z,1.10
2022-10-06T16:54:22.785Z,0.90
2022-10-06T16:56:58.343Z,0.90
2022-10-06T16:59:32.599Z,1.48
2022-10-06T17:01:59.913Z,1.13
2022-10-06T17:04:27.374Z,1.20
2022-10-06T17:06:55.856Z,1.15
2022-10-06T17:09:24.990Z,1.17
2022-10-06T17:11:53.881Z,1.00
2022-10-06T17:14:22.147Z,0.85
2022-10-06T17:16:51.109Z,1.10
2022-10-06T17:19:21.441Z,1.10
2022-10-06T17:21:51.730Z,1.05
2022-10-06T17:24:23.123Z,0.90
2022-10-06T17:26:50.491Z,1.30
2022-10-06T17:29:19.824Z,1.05
2022-10-06T17:31:47.935Z,1.05
2022-10-06T17:34:20.397Z,1.13
2022-10-06T17:36:49.515Z,1.30
2022-10-06T17:39:18.259Z,1.08
2022-10-06T17:41:45.906Z,2.47
2022-10-06T17:44:16.906Z,1.15
2022-10-06T17:46:48.370Z,1.25
2022-10-06T17:49:16.445Z,0.98
2022-10-06T17:51:50.797Z,1.40
2022-10-06T17:54:20.134Z,1.23
2022-10-06T17:56:48.968Z,0.82
2022-10-06T17:59:22.182Z,1.27
2022-10-06T18:01:51.357Z,1.10
2022-10-06T18:04:19.161Z,1.13
2022-10-06T18:06:47.105Z,1.13
2022-10-06T18:09:14.948Z,1.08
2022-10-06T18:11:44.086Z,1.45
2022-10-06T18:14:12.519Z,1.27
2022-10-06T18:16:45.460Z,1.15
2022-10-06T18:19:13.988Z,1.20
2022-10-06T18:21:42.512Z,1.10
2022-10-06T18:24:12.521Z,1.65
2022-10-06T18:29:11.677Z,1.23
2022-10-06T18:31:39.613Z,1.67
2022-10-06T18:36:54.756Z,1.05
2022-10-06T18:39:23.850Z,1.25
2022-10-06T18:41:52.638Z,1.37
2022-10-06T18:44:40.752Z,1.50
2022-10-06T18:47:26.654Z,1.70
2022-10-06T18:49:53.999Z,1.73
2022-10-06T18:52:23.178Z,1.20
2022-10-06T18:54:51.005Z,1.45
2022-10-06T18:57:18.324Z,1.73
2022-10-06T18:59:46.874Z,1.15
2022-10-06T19:02:15.329Z,1.30
2022-10-06T19:04:42.954Z,1.50
2022-10-06T19:07:10.718Z,1.40
2022-10-06T19:09:40.534Z,1.90
2022-10-06T19:12:12.731Z,1.65
2022-10-06T19:14:47.472Z,1.77
2022-10-06T19:17:15.944Z,1.80
2022-10-06T19:19:51.517Z,1.63
2022-10-06T19:22:22.767Z,1.70
2022-10-06T19:24:52.958Z,1.45
2022-10-06T19:27:29.008Z,1.38
2022-10-06T19:29:57.032Z,2.20
2022-10-06T19:32:31.202Z,1.67
2022-10-06T19:34:58.995Z,1.98
2022-10-06T19:37:30.855Z,2.13
2022-10-06T19:39:58.597Z,1.77
2022-10-06T19:42:44.984Z,1.63
2022-10-06T19:45:13.935Z,2.00
2022-10-06T19:47:42.023Z,1.75
2022-10-06T19:50:13.106Z,1.45
2022-10-06T19:52:41.416Z,1.67
2022-10-06T19:55:09.487Z,1.95
2022-10-06T19:57:36.916Z,1.73
2022-10-06T20:00:06.109Z,2.05
2022-10-06T20:02:33.412Z,1.88
2022-10-06T20:05:01.871Z,1.63
2022-10-06T20:07:29.873Z,1.55
2022-10-06T20:09:57.682Z,2.53
2022-10-06T20:12:25.985Z,2.17
2022-10-06T20:14:54.097Z,1.75
2022-10-06T20:17:21.633Z,2.10
2022-10-06T20:19:50.255Z,1.70
2022-10-06T20:22:19.097Z,1.75
2022-10-06T20:24:47.821Z,1.90
2022-10-06T20:27:15.250Z,2.08
2022-10-06T20:29:42.519Z,2.20
2022-10-06T20:32:09.973Z,1.83
2022-10-06T20:34:37.326Z,2.60
2022-10-06T20:37:05.714Z,2.00
2022-10-06T20:39:52.323Z,2.15
2022-10-06T20:42:20.208Z,1.80
2022-10-06T20:44:47.577Z,2.55
2022-10-06T20:47:16.748Z,2.50
2022-10-06T20:49:44.666Z,2.35
2022-10-06T20:52:14.779Z,2.08
2022-10-06T20:54:42.272Z,2.17
2022-10-06T20:57:09.648Z,1.65
2022-10-06T20:59:37.662Z,2.10
2022-10-06T21:02:05.949Z,2.80
2022-10-06T21:04:37.023Z,2.00
2022-10-06T21:07:06.067Z,2.00
2022-10-06T21:09:33.653Z,2.40
2022-10-06T21:12:02.194Z,2.25
2022-10-06T21:14:30.325Z,1.77
2022-10-06T21:16:57.655Z,2.33
2022-10-06T21:19:25.337Z,2.08
2022-10-06T21:21:55.531Z,1.95
2022-10-06T21:24:22.898Z,2.42
2022-10-06T21:26:52.350Z,2.00
2022-10-06T21:29:20.574Z,2.22
2022-10-06T21:31:48.105Z,2.25
2022-10-06T21:34:15.451Z,2.53
2022-10-06T21:36:44.352Z,2.25
2022-10-06T21:39:12.592Z,2.20
2022-10-06T21:41:40.203Z,2.95
2022-10-06T21:44:13.594Z,2.42
2022-10-06T21:46:43.994Z,2.30
2022-10-06T21:49:12.484Z,2.20
2022-10-06T21:51:40.373Z,2.50
2022-10-06T21:54:07.879Z,2.33
2022-10-06T21:56:35.206Z,2.85
2022-10-06T21:59:02.678Z,3.40
2022-10-06T22:01:34.343Z,2.40
2022-10-06T22:04:02.002Z,2.80
2022-10-06T22:06:30.274Z,2.35
2022-10-06T22:08:57.859Z,2.50
2022-10-06T22:11:26.603Z,2.88
2022-10-06T22:13:55.015Z,2.40
2022-10-06T22:16:23.719Z,2.83
2022-10-06T22:18:51.421Z,2.63
2022-10-06T22:21:21.889Z,2.50
2022-10-06T22:23:53.880Z,2.35
2022-10-06T22:26:21.181Z,2.60
2022-10-06T22:28:49.719Z,2.15
2022-10-06T22:31:20.894Z,2.65
2022-10-06T22:33:52.178Z,2.65
2022-10-06T22:36:19.646Z,2.17
2022-10-06T22:38:46.973Z,2.55
2022-10-06T22:41:14.771Z,2.15
2022-10-06T22:43:42.267Z,3.10
2022-10-06T22:46:10.326Z,2.25
2022-10-06T22:48:37.666Z,2.45
2022-10-06T22:51:05.044Z,2.75
2022-10-06T22:53:32.599Z,2.00
2022-10-06T22:56:00.426Z,2.97
2022-10-06T22:58:28.090Z,2.70
2022-10-06T23:00:55.901Z,2.83
2022-10-06T23:03:23.863Z,2.72
2022-10-06T23:06:11.219Z,2.55
2022-10-06T23:08:39.009Z,2.25
2022-10-06T23:11:10.584Z,3.28
2022-10-06T23:13:38.170Z,2.47
2022-10-06T23:16:08.024Z,2.75
2022-10-06T23:18:36.529Z,2.72
2022-10-06T23:21:07.531Z,4.05
2022-10-06T23:23:35.131Z,2.92
2022-10-06T23:26:09.367Z,2.90
2022-10-06T23:28:37.107Z,2.90
2022-10-06T23:31:05.240Z,2.92
2022-10-06T23:33:33.204Z,2.58
2022-10-06T23:36:01.660Z,2.60
2022-10-06T23:38:29.046Z,3.03
2022-10-06T23:40:56.389Z,2.42
2022-10-06T23:43:24.037Z,2.88
2022-10-06T23:45:51.481Z,3.30
2022-10-06T23:48:19.795Z,2.58
2022-10-06T23:51:00.521Z,3.53
2022-10-06T23:53:28.287Z,2.83
2022-10-06T23:55:55.608Z,2.83
2022-10-06T23:58:22.961Z,2.90
